Time;durP1;ratioP1;P1;durP2;ratioP2;P2;SDS_P1;SDS_P2;PMS_P1;PMS_P2;Temp;Humidity;BMP_temperature;BMP_pressure;BME280_temperature;BME280_humidity;BME280_pressure;Samples;Min_cycle;Max_cycle;Signal;HPM_P1;HPM_P2
2022/06/16 00:00:27;;;;;;;2.08;1.98;;;15.60;1.40;;;16.96;100.00;95412.87;646386;212;32154;-74
2022/06/16 00:03:09;;;;;;;2.05;1.85;;;15.50;1.40;;;16.87;100.00;95410.48;647179;216;31666;-74
2022/06/16 00:05:50;;;;;;;3.00;2.70;;;15.30;1.40;;;16.82;100.00;95409.13;647250;216;31977;-74
2022/06/16 00:08:32;;;;;;;1.83;1.73;;;15.30;1.40;;;16.78;100.00;95410.79;647125;216;31566;-74
2022/06/16 00:11:17;;;;;;;3.20;1.85;;;15.30;1.40;;;16.77;100.00;95410.54;646258;216;31556;-74
2022/06/16 00:13:58;;;;;;;2.80;2.00;;;15.30;1.40;;;16.77;100.00;95404.95;646415;216;31689;-74
2022/06/16 00:16:43;;;;;;;3.08;2.45;;;15.40;1.40;;;16.83;100.00;95405.61;646597;216;31516;-74
2022/06/16 00:20:08;;;;;;;;;;;;;;;;;;;;;
2022/06/16 00:23:02;;;;;;;2.50;1.65;;;15.60;1.40;;;16.89;100.00;95408.23;617864;226;31893;-74
2022/06/16 00:25:44;;;;;;;3.10;2.05;;;15.60;1.40;;;17.00;100.00;95410.31;646265;216;31653;-75
2022/06/16 00:28:26;;;;;;;4.07;2.58;;;15.70;1.40;;;16.99;100.00;95405.66;646211;216;31872;-74
2022/06/16 00:31:11;;;;;;;3.83;2.22;;;15.60;1.40;;;16.95;100.00;95407.57;647025;216;31687;-74
2022/06/16 00:35:50;;;;;;;2.40;2.20;;;15.70;1.40;;;17.04;100.00;95402.23;645795;216;43257;-74
2022/06/16 00:38:32;;;;;;;2.03;1.83;;;15.70;1.40;;;17.06;100.00;95400.89;646318;216;31558;-73
2022/06/16 00:41:14;;;;;;;2.47;2.08;;;15.70;1.40;;;17.12;100.00;95408.36;646908;216;32283;-74
2022/06/16 00:43:59;;;;;;;2.40;2.20;;;15.90;1.40;;;17.27;100.00;95406.13;646291;213;31521;-73
2022/06/16 00:46:41;;;;;;;4.25;2.00;;;16.10;1.40;;;17.45;100.00;95403.82;647262;212;32086;-73
2022/06/16 00:49:23;;;;;;;1.92;1.83;;;16.30;1.40;;;17.48;100.00;95413.98;646734;212;31623;-73
2022/06/16 00:52:12;;;;;;;3.10;2.20;;;16.30;1.40;;;17.55;100.00;95420.80;644190;216;31971;-73
2022/06/16 00:54:59;;;;;;;2.42;2.00;;;16.50;1.40;;;17.56;100.00;95417.39;645100;216;31520;-74
2022/06/16 00:57:41;;;;;;;3.17;2.20;;;16.40;1.40;;;17.65;100.00;95415.82;645909;216;31558;-74
2022/06/16 01:00:27;;;;;;;2.50;2.00;;;16.60;1.40;;;17.73;100.00;95417.92;620696;222;32634;-74
2022/06/16 01:03:06;;;;;;;2.40;1.87;;;16.80;1.40;;;17.74;100.00;95413.77;646754;216;31545;-74
2022/06/16 01:05:47;;;;;;;2.33;2.10;;;16.70;1.40;;;17.79;100.00;95411.81;646332;216;31860;-75
2022/06/16 01:08:29;;;;;;;2.50;2.15;;;16.70;1.40;;;17.69;100.00;95411.33;645443;216;31571;-75
2022/06/16 01:11:11;;;;;;;3.08;2.22;;;16.50;1.40;;;17.54;100.00;95403.31;647213;216;31532;-73
2022/06/16 01:13:55;;;;;;;2.53;2.20;;;16.30;1.40;;;17.38;100.00;95400.14;647316;216;31637;-74
2022/06/16 01:16:37;;;;;;;3.03;2.30;;;16.10;1.40;;;17.42;100.00;95396.33;617865;226;31966;-73
2022/06/16 01:19:30;;;;;;;2.50;1.93;;;16.30;1.40;;;17.42;100.00;95402.12;646275;216;31868;-73
2022/06/16 01:22:15;;;;;;;2.50;2.30;;;16.30;1.40;;;17.40;100.00;95410.67;643180;216;31725;-73
2022/06/16 01:25:00;;;;;;;4.47;2.00;;;16.40;1.40;;;17.42;100.00;95412.23;645493;216;32070;-73
2022/06/16 01:28:07;;;;;;;3.35;1.98;;;16.40;1.40;;;17.41;100.00;95408.78;619959;226;32027;-90
2022/06/16 01:30:54;;;;;;;2.80;1.90;;;16.20;1.40;;;17.28;100.00;95408.94;646122;216;31574;-74
2022/06/16 01:35:54;;;;;;;2.37;2.17;;;16.00;1.40;;;17.18;100.00;95417.88;631458;217;42678;-74
2022/06/16 01:38:41;;;;;;;2.40;2.20;;;15.90;1.40;;;17.12;100.00;95409.50;646825;212;31601;-74
2022/06/16 01:41:23;;;;;;;3.90;1.95;;;16.00;1.40;;;16.94;100.00;95409.41;645225;216;31624;-74
2022/06/16 01:44:19;;;;;;;2.00;1.80;;;15.70;1.40;;;16.89;100.00;95409.59;646487;216;31584;-74
2022/06/16 01:47:06;;;;;;;1.65;1.55;;;15.70;1.40;;;16.95;100.00;95413.89;647369;216;31591;-74
2022/06/16 01:49:55;;;;;;;2.40;2.20;;;15.90;1.40;;;17.00;100.00;95407.39;646637;216;31676;-73
2022/06/16 01:52:37;;;;;;;4.75;2.30;;;15.90;1.40;;;16.95;100.00;95406.59;642047;216;31839;-73
2022/06/16 01:55:18;;;;;;;2.40;2.20;;;15.70;1.40;;;16.79;100.00;95404.48;645584;212;31536;-74
2022/06/16 02:00:34;;;;;;;2.87;1.90;;;15.70;1.40;;;16.79;100.00;95402.38;618878;226;31893;-75
2022/06/16 02:03:21;;;;;;;3.10;2.60;;;15.60;1.40;;;16.85;100.00;95401.59;646070;216;32175;-75
2022/06/16 02:06:06;;;;;;;2.40;2.00;;;15.60;1.40;;;16.73;100.00;95399.59;647097;216;31741;-75
2022/06/16 02:08:51;;;;;;;2.00;1.80;;;15.40;1.40;;;16.90;100.00;95401.67;647236;216;31530;-75
2022/06/16 02:11:33;;;;;;;2.22;2.03;;;15.90;1.40;;;16.95;100.00;95399.55;645624;216;31567;-76
2022/06/16 02:14:15;;;;;;;3.00;2.00;;;15.80;1.40;;;16.92;100.00;95395.19;646065;212;31647;-74
2022/06/16 02:16:56;;;;;;;2.87;2.10;;;15.50;1.40;;;16.82;100.00;95386.27;646410;216;31911;-74
2022/06/16 02:19:41;;;;;;;4.00;2.15;;;15.50;1.40;;;16.66;100.00;95379.20;618921;222;31868;-74
2022/06/16 02:22:23;;;;;;;2.33;1.87;;;15.40;1.40;;;16.60;100.00;95379.48;647304;212;31568;-73
2022/06/16 02:25:05;;;;;;;1.80;1.60;;;15.30;1.40;;;16.69;100.00;95382.08;645883;212;31611;-74
2022/06/16 02:27:47;;;;;;;3.10;2.30;;;15.50;1.40;;;16.74;100.00;95377.66;646150;216;31878;-75
2022/06/16 02:30:28;;;;;;;10.73;2.30;;;15.60;1.40;;;16.74;100.00;95378.03;646878;216;31633;-74
2022/06/16 02:35:52;;;;;;;2.47;2.15;;;15.40;1.40;;;16.72;100.00;95380.05;646401;216;31635;-74
2022/06/16 02:38:52;;;;;;;2.00;1.73;;;15.60;1.40;;;16.69;100.00;95382.41;647238;216;31537;-73
2022/06/16 02:41:36;;;;;;;1.98;1.87;;;15.40;1.40;;;16.71;100.00;95385.25;646143;216;31524;-74
2022/06/16 02:44:21;;;;;;;2.50;2.30;;;15.50;1.40;;;16.73;100.00;95384.53;647023;212;31545;-76
2022/06/16 02:47:18;;;;;;;2.25;2.05;;;15.50;1.40;;;16.67;100.00;95383.13;646242;216;31619;-74
2022/06/16 02:50:00;;;;;;;3.12;2.70;;;15.60;1.40;;;16.65;100.00;95376.93;647393;216;31780;-73
2022/06/16 02:52:41;;;;;;;2.25;2.08;;;15.50;1.40;;;16.56;100.00;95367.55;641609;216;31704;-73
2022/06/16 02:55:35;;;;;;;2.67;2.47;;;15.40;1.40;;;16.53;100.00;95362.73;646046;216;31522;-74
2022/06/16 02:58:16;;;;;;;2.30;2.10;;;15.40;1.40;;;16.54;100.00;95359.81;619897;225;31854;-74
2022/06/16 03:00:58;;;;;;;2.15;1.95;;;15.40;1.40;;;16.54;100.00;95358.80;645885;216;31540;-74
2022/06/16 03:03:40;;;;;;;2.55;2.35;;;15.50;1.40;;;16.64;100.00;95354.70;619652;226;31852;-74
2022/06/16 03:06:21;;;;;;;2.62;2.22;;;15.60;1.40;;;16.60;100.00;95358.13;645981;216;31538;-74
2022/06/16 03:09:04;;;;;;;2.20;2.00;;;15.50;1.40;;;16.62;100.00;95358.19;646303;216;31613;-75
2022/06/16 03:11:45;;;;;;;2.30;1.87;;;15.50;1.40;;;16.61;100.00;95358.30;646301;212;31553;-75
2022/06/16 03:14:26;;;;;;;2.58;1.77;;;15.60;1.40;;;16.63;100.00;95359.87;647413;212;31583;-75
2022/06/16 03:17:11;;;;;;;2.33;1.92;;;15.50;1.40;;;16.63;100.00;95361.27;646875;216;31695;-74
2022/06/16 03:19:53;;;;;;;2.37;2.17;;;15.50;1.40;;;16.71;100.00;95362.95;646701;216;31565;-74
2022/06/16 03:22:35;;;;;;;1.48;1.37;;;15.60;1.40;;;16.74;100.00;95366.70;646792;212;32140;-74
2022/06/16 03:25:16;;;;;;;2.40;2.00;;;15.60;1.40;;;16.65;100.00;95364.45;619997;226;31948;-74
2022/06/16 03:27:58;;;;;;;4.20;1.80;;;15.40;1.40;;;16.52;100.00;95365.19;644981;216;31585;-75
2022/06/16 03:30:40;;;;;;;2.47;2.28;;;15.30;1.40;;;16.54;100.00;95367.34;648684;216;31838;-73
2022/06/16 03:35:54;;;;;;;1.75;1.65;;;15.20;1.40;;;16.46;100.00;95365.19;647201;216;31695;-74
2022/06/16 03:38:45;;;;;;;2.20;2.00;;;15.20;1.40;;;16.46;100.00;95371.38;646781;216;31526;-73
2022/06/16 03:41:27;;;;;;;2.53;2.12;;;15.20;1.40;;;16.52;100.00;95373.31;647062;216;31510;-74
2022/06/16 03:44:08;;;;;;;2.15;1.95;;;15.30;1.40;;;16.53;100.00;95374.31;647126;216;31737;-73
2022/06/16 03:46:50;;;;;;;2.15;1.65;;;15.40;1.40;;;16.48;100.00;95364.78;646349;216;31535;-74
2022/06/16 03:49:32;;;;;;;2.75;2.33;;;15.30;1.40;;;16.47;100.00;95371.47;647381;216;32102;-73
2022/06/16 03:52:13;;;;;;;3.87;2.33;;;15.20;1.40;;;16.48;100.00;95367.41;636625;220;32484;-74
2022/06/16 03:54:55;;;;;;;2.10;1.90;;;15.20;1.40;;;16.59;100.00;95365.52;647296;216;31629;-73
2022/06/16 03:57:37;;;;;;;3.20;1.95;;;15.40;1.40;;;16.60;100.00;95369.13;645412;212;31603;-74
2022/06/16 04:00:19;;;;;;;2.20;1.60;;;15.40;1.40;;;16.70;100.00;95372.43;647127;212;31618;-74
2022/06/16 04:05:47;;;;;;;2.43;2.10;;;15.70;1.40;;;16.97;100.00;95382.07;617768;226;32490;-74
2022/06/16 04:08:29;;;;;;;2.50;2.30;;;15.80;1.40;;;17.00;100.00;95386.44;619151;226;32006;-76
2022/06/16 04:14:00;;;;;;;2.37;2.17;;;15.40;1.40;;;16.91;100.00;95393.26;646001;216;31940;-74
2022/06/16 04:16:43;;;;;;;1.60;1.40;;;15.30;1.40;;;16.71;100.00;95388.74;646335;216;31571;-74
2022/06/16 04:19:25;;;;;;;1.62;1.52;;;15.20;1.40;;;16.75;100.00;95383.00;646128;216;31601;-73
2022/06/16 04:22:09;;;;;;;2.78;2.00;;;15.20;1.40;;;16.70;100.00;95380.31;647072;216;31543;-74
2022/06/16 04:24:53;;;;;;;6.10;3.12;;;15.20;1.40;;;16.75;100.00;95381.90;646543;216;31586;-74
2022/06/16 04:27:35;;;;;;;3.85;3.03;;;15.30;1.40;;;16.83;100.00;95376.08;646102;216;32213;-74
2022/06/16 04:30:17;;;;;;;2.92;2.05;;;15.40;1.40;;;16.91;100.00;95372.22;646118;215;31587;-74
2022/06/16 04:32:58;;;;;;;3.20;2.90;;;15.40;1.40;;;16.87;100.00;95369.00;646146;216;31575;-74
2022/06/16 04:35:52;;;;;;;4.25;2.92;;;15.40;1.40;;;16.94;100.00;95362.87;646329;216;32130;-74
2022/06/16 04:38:39;;;;;;;4.87;2.37;;;15.60;1.40;;;17.09;100.00;95367.51;646497;215;31570;-74
2022/06/16 04:41:20;;;;;;;4.15;2.12;;;15.70;1.40;;;17.23;100.00;95369.73;647716;212;31547;-74
2022/06/16 04:46:36;;;;;;;2.50;2.10;;;16.30;1.40;;;17.58;100.00;95370.39;646006;216;42367;-74
2022/06/16 04:49:18;;;;;;;3.50;2.85;;;16.40;1.40;;;17.70;100.00;95370.56;645810;216;31558;-75
2022/06/16 04:52:00;;;;;;;2.50;1.90;;;16.50;1.40;;;17.85;100.00;95372.70;645200;216;43200;-74
2022/06/16 04:57:22;;;;;;;2.77;2.20;;;16.60;1.40;;;18.05;100.00;95379.30;646350;216;31710;-74
2022/06/16 05:00:03;;;;;;;2.70;1.62;;;16.70;1.40;;;18.07;100.00;95382.22;617561;222;33730;-74
2022/06/16 05:02:45;;;;;;;2.62;2.22;;;16.60;1.40;;;18.09;100.00;95384.78;647091;216;31554;-74
2022/06/16 05:08:03;;;;;;;3.00;2.67;;;16.80;1.40;;;18.32;100.00;95392.49;646742;216;31613;-74
2022/06/16 05:10:46;;;;;;;2.25;1.80;;;17.00;1.40;;;18.40;100.00;95394.77;646886;216;32143;-74
2022/06/16 05:13:28;;;;;;;4.00;1.60;;;17.10;1.40;;;18.64;100.00;95391.84;618690;226;32015;-74
2022/06/16 05:16:09;;;;;;;3.60;2.15;;;17.40;1.40;;;18.89;100.00;95392.83;645775;215;31578;-74
2022/06/16 05:18:51;;;;;;;1.70;1.60;;;17.60;1.40;;;19.03;100.00;95395.23;645846;216;31631;-74
2022/06/16 05:21:33;;;;;;;3.08;2.12;;;17.80;1.40;;;19.19;100.00;95399.14;647701;212;31918;-74
2022/06/16 05:24:15;;;;;;;2.78;1.98;;;18.00;1.40;;;19.40;100.00;95399.69;645837;216;31649;-74
2022/06/16 05:26:56;;;;;;;2.87;1.80;;;18.30;1.40;;;19.73;100.00;95401.33;646186;212;31717;-73
2022/06/16 05:29:41;;;;;;;2.85;2.25;;;18.70;1.40;;;20.15;100.00;95411.61;645857;216;31585;-73
2022/06/16 05:32:23;;;;;;;2.47;2.28;;;19.10;1.40;;;20.46;100.00;95413.47;647892;216;31606;-74
2022/06/16 05:35:55;;;;;;;4.20;2.30;;;19.40;1.40;;;21.00;100.00;95421.23;646683;216;31908;-75
2022/06/16 05:38:37;;;;;;;3.80;2.00;;;19.80;1.40;;;21.19;100.00;95422.81;646542;212;31581;-73
2022/06/16 05:41:19;;;;;;;2.00;1.80;;;19.80;1.40;;;21.37;100.00;95418.50;618553;226;32588;-74
2022/06/16 05:44:00;;;;;;;2.15;1.95;;;20.00;1.40;;;21.46;100.00;95420.29;645423;216;31907;-74
2022/06/16 05:46:42;;;;;;;4.78;2.33;;;20.00;1.40;;;21.33;100.00;95423.02;643234;215;32108;-75
2022/06/16 05:49:24;;;;;;;1.65;1.55;;;20.00;1.40;;;21.54;100.00;95424.52;646916;212;31800;-74
2022/06/16 05:52:09;;;;;;;2.70;2.20;;;20.00;1.40;;;21.55;100.00;95433.36;645005;216;31816;-74
2022/06/16 05:54:51;;;;;;;2.17;1.98;;;20.20;1.40;;;21.50;100.00;95431.59;646531;216;31543;-74
2022/06/16 05:57:33;;;;;;;2.45;2.25;;;20.30;1.40;;;21.71;100.00;95427.48;646373;216;31670;-75
2022/06/16 06:00:15;;;;;;;2.22;2.00;;;20.40;1.40;;;21.77;100.00;95433.58;646516;216;31563;-74
2022/06/16 06:02:57;;;;;;;1.90;1.80;;;20.60;1.40;;;21.88;100.00;95434.89;646975;216;31560;-74
2022/06/16 06:05:38;;;;;;;1.77;1.50;;;21.00;1.40;;;22.14;100.00;95433.27;646206;212;31571;-74
2022/06/16 06:16:35;;;;;;;2.63;1.90;;;21.90;1.40;;;22.70;100.00;95436.22;646013;216;31522;-74
2022/06/16 06:22:06;;;;;;;2.80;1.60;;;21.60;1.40;;;22.74;100.00;95438.41;646835;216;42380;-73
2022/06/16 06:24:49;;;;;;;3.17;2.03;;;21.60;1.40;;;22.89;100.00;95432.45;647024;216;31668;-73
2022/06/16 06:27:34;;;;;;;3.60;2.15;;;21.70;1.40;;;22.95;100.00;95436.66;647060;216;31795;-74
2022/06/16 06:30:19;;;;;;;4.30;2.10;;;21.80;1.40;;;23.02;100.00;95434.41;647961;216;31750;-73
2022/06/16 06:35:51;;;;;;;3.17;2.30;;;21.90;1.40;;;23.13;100.00;95435.30;647543;212;31627;-74
2022/06/16 06:38:34;;;;;;;2.05;1.77;;;22.00;1.40;;;23.00;100.00;95430.03;646688;216;31564;-74
2022/06/16 06:41:16;;;;;;;2.30;1.80;;;22.00;1.40;;;23.12;100.00;95435.33;647466;216;31612;-74
2022/06/16 06:43:57;;;;;;;2.58;2.10;;;22.00;1.40;;;23.43;100.00;95437.52;618577;222;31875;-74
2022/06/16 06:46:38;;;;;;;3.33;1.90;;;22.20;1.40;;;23.41;100.00;95437.23;615296;224;31930;-74
2022/06/16 06:49:19;;;;;;;3.30;2.10;;;22.20;1.40;;;23.40;100.00;95439.25;646916;216;31560;-73
2022/06/16 06:52:01;;;;;;;2.78;2.20;;;22.00;1.40;;;23.44;100.00;95446.67;647145;212;31552;-74
2022/06/16 06:54:45;;;;;;;2.53;1.98;;;22.00;1.40;;;23.14;100.00;95453.71;646329;216;31529;-74
2022/06/16 06:57:25;;;;;;;4.00;2.05;;;21.80;1.40;;;22.85;100.00;95458.63;647867;216;31567;-74
2022/06/16 07:00:08;;;;;;;2.40;1.80;;;21.60;1.40;;;22.57;100.00;95463.43;647122;212;42422;-74
2022/06/16 07:02:50;;;;;;;3.05;2.00;;;21.40;1.40;;;22.48;100.00;95469.00;646643;216;31609;-74
2022/06/16 07:05:31;;;;;;;3.60;2.12;;;21.40;1.40;;;22.47;100.00;95466.03;647592;216;31726;-74
2022/06/16 07:08:13;;;;;;;2.92;2.20;;;21.40;1.40;;;22.75;100.00;95460.20;619308;226;32058;-74
2022/06/16 07:10:55;;;;;;;3.28;1.92;;;21.60;1.40;;;23.02;100.00;95458.46;645903;216;31526;-74
2022/06/16 07:13:36;;;;;;;3.33;1.83;;;21.80;1.40;;;23.13;100.00;95473.87;645958;216;31764;-74
2022/06/16 07:16:18;;;;;;;3.10;2.50;;;22.00;1.40;;;23.40;100.00;95471.13;620152;226;32002;-74
2022/06/16 07:19:00;;;;;;;6.65;2.08;;;22.30;1.40;;;23.67;100.00;95463.53;645629;216;31707;-74
2022/06/16 07:21:41;;;;;;;2.50;2.00;;;22.40;1.40;;;23.71;100.00;95464.62;646822;216;31909;-74
2022/06/16 07:24:23;;;;;;;4.15;2.03;;;22.50;1.40;;;23.55;100.00;95466.00;646001;216;31794;-73
2022/06/16 07:27:07;;;;;;;2.60;1.90;;;22.40;1.40;;;23.52;100.00;95464.96;619334;226;31872;-73
2022/06/16 07:29:49;;;;;;;2.97;2.08;;;22.50;1.40;;;23.79;100.00;95462.48;648017;216;31543;-74
2022/06/16 07:32:30;;;;;;;4.30;2.33;;;22.70;1.40;;;23.89;100.00;95471.53;646772;216;31538;-74
2022/06/16 07:35:52;;;;;;;3.63;1.70;;;23.00;1.40;;;24.27;100.00;95454.64;645907;216;31863;-74
2022/06/16 07:38:33;;;;;;;4.20;1.83;;;22.90;1.40;;;24.40;100.00;95454.48;647319;216;31525;-74
2022/06/16 07:44:04;;;;;;;5.55;1.85;;;22.70;1.40;;;24.13;100.00;95446.09;647599;216;42445;-74
2022/06/16 07:46:48;;;;;;;5.82;1.92;;;22.70;1.40;;;24.11;100.00;95447.22;646826;212;42162;-74
2022/06/16 07:49:32;;;;;;;4.62;2.50;;;22.60;1.40;;;24.06;100.00;95439.34;645725;216;42792;-74
2022/06/16 07:52:16;;;;;;;2.28;1.90;;;22.80;1.40;;;24.20;100.00;95436.21;641854;216;31683;-74
2022/06/16 07:54:58;;;;;;;6.43;1.95;;;23.10;1.40;;;24.27;100.00;95424.28;647952;212;42287;-74
2022/06/16 07:57:43;;;;;;;2.45;2.10;;;23.30;1.40;;;24.53;100.00;95426.93;644353;216;31585;-74
2022/06/16 08:00:27;;;;;;;4.70;1.90;;;23.40;1.40;;;24.59;100.00;95427.98;646476;212;31544;-72
2022/06/16 08:03:15;;;;;;;2.50;1.92;;;23.70;1.40;;;24.74;95.46;95440.53;647796;212;42513;-74
2022/06/16 08:06:02;;;;;;;2.50;2.30;;;23.80;1.40;;;24.91;97.39;95438.88;646664;216;42170;-74
2022/06/16 08:08:44;;;;;;;4.40;1.80;;;24.10;1.40;;;25.46;98.42;95448.46;646757;216;42462;-74
2022/06/16 08:14:16;;;;;;;2.42;2.00;;;25.10;1.40;;;26.38;89.08;95449.75;646823;216;32123;-74
2022/06/16 08:16:58;;;;;;;2.37;1.80;;;25.20;1.40;;;26.45;88.42;95454.00;647374;216;42776;-74
2022/06/16 08:19:44;;;;;;;3.22;2.62;;;25.00;1.40;;;26.22;83.58;95455.34;645390;216;32173;-75
2022/06/16 08:22:32;;;;;;;2.95;1.75;;;24.80;1.40;;;26.19;89.14;95465.11;646451;216;31561;-74
2022/06/16 08:25:15;;;;;;;2.67;2.20;;;24.80;1.40;;;25.73;90.13;95477.50;647429;212;31599;-74
2022/06/16 08:27:55;;;;;;;2.33;2.03;;;24.40;1.40;;;25.57;90.80;95484.91;646513;212;31665;-73
2022/06/16 08:30:41;;;;;;;5.07;2.50;;;24.40;1.40;;;25.63;93.45;95496.98;647834;212;31816;-75
2022/06/16 08:35:51;;;;;;;1.90;1.60;;;24.40;1.40;;;25.51;97.42;95493.73;646787;212;31599;-74
2022/06/16 08:38:33;;;;;;;2.40;1.90;;;24.30;1.40;;;25.44;90.95;95495.26;647908;216;31517;-73
2022/06/16 08:41:18;;;;;;;5.28;1.80;;;24.30;1.40;;;25.41;92.52;95504.97;646981;212;31606;-75
2022/06/16 08:44:08;;;;;;;3.50;1.67;;;24.50;1.40;;;25.70;93.17;95498.95;647083;212;31605;-74
2022/06/16 08:47:05;;;;;;;2.83;1.80;;;24.80;1.40;;;26.20;92.36;95499.00;646820;212;31697;-75
2022/06/16 08:52:28;;;;;;;3.95;2.30;;;25.30;1.40;;;25.97;89.85;95495.03;642439;212;31997;-75
2022/06/16 08:55:26;;;;;;;2.10;1.90;;;24.70;1.40;;;26.02;91.45;95492.69;619826;226;32151;-75
2022/06/16 08:58:15;;;;;;;4.30;1.80;;;25.00;1.40;;;26.44;90.79;95486.94;647713;212;31542;-75
2022/06/16 09:01:05;;;;;;;2.60;2.00;;;25.50;1.40;;;27.21;90.36;95484.36;647658;212;33234;-75
2022/06/16 09:03:48;;;;;;;3.42;1.90;;;26.30;1.40;;;27.74;87.19;95467.73;647233;216;31648;-75
2022/06/16 09:07:13;;;;;;;4.30;2.37;;;26.80;1.40;;;28.46;82.90;95471.55;646221;216;31577;-76
2022/06/16 09:10:16;;;;;;;4.82;2.17;;;27.60;1.40;;;28.58;78.27;95482.78;631217;222;31719;-74
2022/06/16 09:13:16;;;;;;;3.00;2.20;;;27.50;1.40;;;28.99;77.61;95493.36;647300;212;31621;-76
2022/06/16 09:16:28;;;;;;;3.12;2.08;;;27.40;1.40;;;27.89;80.15;95509.90;647068;216;42199;-75
2022/06/16 09:22:09;;;;;;;3.30;2.37;;;25.70;1.40;;;26.83;85.64;95517.27;646973;216;42479;-75
2022/06/16 09:27:43;;;;;;;2.60;2.40;;;26.00;1.40;;;27.95;85.61;95515.84;646656;213;31732;-74
2022/06/16 09:30:28;;;;;;;2.40;2.20;;;26.90;1.40;;;29.10;78.56;95510.73;619258;226;32076;-75
2022/06/16 09:36:00;;;;;;;4.20;2.78;;;27.60;1.40;;;29.49;78.29;95504.05;646534;216;32411;-74
2022/06/16 09:38:43;;;;;;;3.25;2.40;;;29.20;1.40;;;29.69;76.60;95519.80;647086;216;31537;-75
2022/06/16 09:44:35;;;;;;;3.28;2.42;;;28.50;1.40;;;29.95;79.02;95526.30;647913;216;31556;-75
2022/06/16 09:47:17;;;;;;;2.92;2.40;;;29.40;1.40;;;30.41;75.43;95519.27;645971;212;31565;-74
2022/06/16 09:49:59;;;;;;;4.75;2.50;;;30.10;1.40;;;30.32;72.41;95522.62;646502;216;31651;-75
2022/06/16 09:52:44;;;;;;;3.85;2.25;;;29.20;1.40;;;29.94;72.61;95525.08;641207;212;42331;-75
2022/06/16 09:55:32;;;;;;;3.80;2.40;;;28.00;1.40;;;28.94;75.10;95527.61;647227;216;31564;-75
2022/06/16 10:00:48;;;;;;;2.58;2.10;;;28.50;1.40;;;28.99;70.63;95542.55;646220;216;31976;-75
2022/06/16 10:03:34;;;;;;;3.80;1.80;;;28.00;1.40;;;28.11;77.15;95546.02;619150;222;31989;-75
2022/06/16 10:06:42;;;;;;;2.75;2.55;;;26.90;1.40;;;27.47;79.37;95545.91;647479;212;31566;-74
2022/06/16 10:09:44;;;;;;;2.85;2.00;;;26.50;1.40;;;27.39;83.11;95556.27;646447;212;31563;-74
2022/06/16 10:12:55;;;;;;;4.80;2.10;;;25.70;1.40;;;27.24;83.14;95550.98;645790;212;31593;-74
2022/06/16 10:15:44;;;;;;;2.33;2.12;;;26.20;1.40;;;27.54;81.86;95557.41;647267;216;31521;-74
2022/06/16 10:18:26;;;;;;;3.53;2.30;;;26.20;1.40;;;27.52;84.85;95564.70;646585;216;31552;-74
2022/06/16 10:21:08;;;;;;;4.43;2.50;;;26.80;1.40;;;28.26;82.78;95562.83;648230;216;42198;-75
2022/06/16 10:23:52;;;;;;;4.68;2.50;;;26.90;1.40;;;27.97;78.83;95563.78;646587;216;31818;-74
2022/06/16 10:26:35;;;;;;;5.72;2.60;;;26.50;1.40;;;27.94;80.31;95570.94;645833;216;31572;-74
2022/06/16 10:29:21;;;;;;;4.95;2.10;;;26.10;1.40;;;27.32;91.64;95575.80;646358;214;31766;-74
2022/06/16 10:32:03;;;;;;;2.30;2.20;;;25.80;1.40;;;26.15;97.80;95579.67;646746;216;31568;-74
2022/06/16 10:35:55;;;;;;;3.75;2.00;;;25.00;1.40;;;25.95;99.47;95577.39;619112;226;31913;-74
2022/06/16 10:38:38;;;;;;;2.00;1.80;;;24.80;1.40;;;26.36;95.49;95576.47;647163;212;42492;-74
2022/06/16 10:41:24;;;;;;;2.87;1.90;;;25.10;1.40;;;27.19;96.59;95577.41;645958;216;31542;-74
2022/06/16 10:44:06;;;;;;;2.87;2.58;;;27.00;1.40;;;28.31;88.96;95567.13;646297;216;31551;-75
2022/06/16 10:46:52;;;;;;;2.60;2.40;;;27.80;1.40;;;29.66;79.18;95568.91;646641;216;31553;-74
2022/06/16 10:49:34;;;;;;;2.60;2.40;;;29.30;1.40;;;30.44;71.10;95565.34;644655;212;31535;-74
2022/06/16 10:52:21;;;;;;;4.28;2.30;;;29.60;1.40;;;31.58;64.91;95568.64;646203;216;31623;-74
2022/06/16 10:55:20;;;;;;;3.95;2.58;;;29.90;1.40;;;32.38;64.46;95563.56;645682;216;31566;-72
2022/06/16 10:58:02;;;;;;;2.70;2.50;;;31.10;1.40;;;31.87;59.64;95562.12;646056;216;31632;-73
2022/06/16 11:00:43;;;;;;;4.30;2.65;;;29.90;1.40;;;32.19;60.89;95563.33;645385;212;42367;-75
2022/06/16 11:03:25;;;;;;;7.55;3.22;;;30.20;1.40;;;31.81;60.56;95561.09;647039;216;31775;-73
2022/06/16 11:06:07;;;;;;;3.30;2.25;;;29.50;1.40;;;31.53;59.38;95558.86;647697;212;32070;-75
2022/06/16 11:08:51;;;;;;;4.10;2.80;;;29.00;1.40;;;31.58;59.14;95553.84;646431;216;31933;-74
2022/06/16 11:11:42;;;;;;;2.80;2.60;;;29.40;1.40;;;31.34;59.64;95555.06;646203;216;31715;-77
2022/06/16 11:14:40;;;;;;;4.10;2.10;;;28.40;1.40;;;29.55;63.08;95555.14;645419;216;31586;-74
2022/06/16 11:17:31;;;;;;;5.75;2.78;;;27.50;1.40;;;29.53;67.35;95557.47;646958;216;31683;-75
2022/06/16 11:20:18;;;;;;;4.07;2.78;;;27.70;1.40;;;29.63;64.20;95552.12;617604;226;31929;-76
2022/06/16 11:22:59;;;;;;;3.90;3.20;;;28.50;1.40;;;31.63;60.78;95549.72;647869;216;31583;-75
2022/06/16 11:25:41;;;;;;;3.22;2.80;;;30.10;1.40;;;32.86;58.88;95541.20;646863;212;31661;-75
2022/06/16 11:28:23;;;;;;;3.60;2.60;;;30.20;1.40;;;32.56;56.37;95541.50;647706;212;31657;-74
2022/06/16 11:31:05;;;;;;;4.62;2.40;;;30.00;1.40;;;32.20;56.12;95543.91;645683;216;31725;-73
2022/06/16 11:35:50;;;;;;;3.60;2.62;;;29.30;1.40;;;30.72;58.48;95542.92;646649;216;31588;-74
2022/06/16 11:38:32;;;;;;;3.97;2.50;;;29.20;1.40;;;30.41;57.05;95539.12;646995;212;31525;-75
2022/06/16 11:41:15;;;;;;;2.90;2.60;;;29.00;1.40;;;30.68;57.78;95540.02;646143;212;32135;-75
2022/06/16 11:44:19;;;;;;;3.08;2.50;;;29.30;1.40;;;31.19;55.56;95547.08;647194;212;31729;-75
2022/06/16 11:47:10;;;;;;;4.65;2.60;;;29.80;1.40;;;31.85;55.44;95546.44;645256;216;42205;-75
2022/06/16 11:50:16;;;;;;;2.70;2.30;;;30.00;1.40;;;31.11;53.00;95545.26;645797;216;42742;-75
2022/06/16 11:53:16;;;;;;;5.12;2.70;;;29.00;1.40;;;29.74;52.19;95556.05;639745;216;31759;-75
2022/06/16 11:56:13;;;;;;;2.90;2.70;;;28.00;1.40;;;29.80;52.82;95552.70;647535;216;31564;-78
2022/06/16 11:59:35;;;;;;;3.17;2.50;;;28.70;1.40;;;30.06;52.84;95547.55;646750;212;32101;-75
2022/06/16 12:02:55;;;;;;;4.20;2.90;;;28.90;1.40;;;29.92;53.73;95545.37;645763;216;31624;-74
2022/06/16 12:05:45;;;;;;;3.12;2.83;;;28.80;1.40;;;30.11;53.75;95535.16;646863;212;32044;-75
2022/06/16 12:11:17;;;;;;;2.72;2.30;;;29.30;1.40;;;30.75;53.84;95529.30;647053;216;32178;-75
2022/06/16 12:14:08;;;;;;;3.97;2.90;;;29.70;1.40;;;30.68;54.28;95525.16;647148;214;31647;-75
2022/06/16 12:19:48;;;;;;;2.70;2.50;;;29.80;1.40;;;32.83;46.79;95522.70;647507;216;42248;-75
2022/06/16 12:22:38;;;;;;;2.85;2.65;;;30.30;1.40;;;34.04;45.79;95516.64;647257;212;31738;-75
2022/06/16 12:25:21;;;;;;;2.92;2.40;;;30.90;1.40;;;33.90;43.71;95523.95;647545;216;31882;-74
2022/06/16 12:28:05;;;;;;;3.00;2.40;;;30.80;1.40;;;34.93;41.96;95519.31;646788;216;31905;-74
2022/06/16 12:30:59;;;;;;;2.80;2.60;;;31.20;1.40;;;35.06;42.68;95520.19;645882;216;31736;-75
2022/06/16 12:35:56;;;;;;;2.33;2.15;;;31.30;1.40;;;34.77;40.07;95528.96;645943;216;32022;-75
2022/06/16 12:38:45;;;;;;;2.37;2.17;;;31.00;1.40;;;35.69;39.68;95528.39;619570;225;32091;-76
2022/06/16 12:41:26;;;;;;;3.65;2.70;;;31.20;1.40;;;36.03;37.94;95520.03;646050;216;43136;-73
2022/06/16 12:44:15;;;;;;;3.55;2.15;;;30.80;1.40;;;35.24;38.95;95526.66;646744;212;32515;-73
2022/06/16 12:46:59;;;;;;;3.08;2.12;;;31.30;1.40;;;34.68;39.12;95523.64;647686;212;31803;-73
2022/06/16 12:49:45;;;;;;;4.13;2.30;;;31.00;1.40;;;34.58;39.29;95522.10;647744;216;31755;-73
2022/06/16 12:55:06;;;;;;;2.62;2.42;;;31.10;1.40;;;35.34;38.60;95528.51;647370;216;31618;-75
2022/06/16 12:57:48;;;;;;;3.00;2.70;;;31.50;1.40;;;34.80;38.81;95526.98;646777;216;31735;-73